sensor_id;sensor_type;location;lat;lon;timestamp;P1;durP1;ratioP1;P2;durP2;ratioP2
14994;SDS011;7593;49.006;8.372;2022-08-01T00:01:35;3.00;;;2.80;;
14994;SDS011;7593;49.006;8.372;2022-08-01T00:04:02;4.45;;;2.38;;
14994;SDS011;7593;49.006;8.372;2022-08-01T00:06:29;2.72;;;2.53;;
14994;SDS011;7593;49.006;8.372;2022-08-01T00:08:56;3.67;;;2.63;;
14994;SDS011;7593;49.006;8.372;2022-08-01T00:11:23;2.95;;;2.40;;
14994;SDS011;7593;49.006;8.372;2022-08-01T00:13:50;4.32;;;2.33;;
14994;SDS011;7593;49.006;8.372;2022-08-01T00:16:17;2.60;;;2.40;;
14994;SDS011;7593;49.006;8.372;2022-08-01T00:18:48;2.47;;;2.28;;
14994;SDS011;7593;49.006;8.372;2022-08-01T00:21:15;4.05;;;2.40;;
14994;SDS011;7593;49.006;8.372;2022-08-01T00:23:42;4.13;;;2.25;;
14994;SDS011;7593;49.006;8.372;2022-08-01T00:26:10;3.92;;;2.40;;
14994;SDS011;7593;49.006;8.372;2022-08-01T00:28:37;3.95;;;2.53;;
14994;SDS011;7593;49.006;8.372;2022-08-01T00:31:04;4.90;;;2.67;;
14994;SDS011;7593;49.006;8.372;2022-08-01T00:33:30;3.22;;;2.78;;
14994;SDS011;7593;49.006;8.372;2022-08-01T00:35:59;2.88;;;2.50;;
14994;SDS011;7593;49.006;8.372;2022-08-01T00:38:25;2.83;;;2.45;;
14994;SDS011;7593;49.006;8.372;2022-08-01T00:40:52;3.80;;;2.63;;
14994;SDS011;7593;49.006;8.372;2022-08-01T00:43:19;3.45;;;2.60;;
14994;SDS011;7593;49.006;8.372;2022-08-01T00:45:46;4.38;;;2.60;;
14994;SDS011;7593;49.006;8.372;2022-08-01T00:48:12;4.00;;;2.85;;
14994;SDS011;7593;49.006;8.372;2022-08-01T00:50:39;4.45;;;2.97;;
14994;SDS011;7593;49.006;8.372;2022-08-01T00:53:08;2.85;;;2.50;;
14994;SDS011;7593;49.006;8.372;2022-08-01T00:55:35;3.10;;;2.80;;
14994;SDS011;7593;49.006;8.372;2022-08-01T00:58:01;3.00;;;2.63;;
14994;SDS011;7593;49.006;8.372;2022-08-01T01:00:28;4.22;;;3.47;;
14994;SDS011;7593;49.006;8.372;2022-08-01T01:02:55;7.55;;;3.40;;
14994;SDS011;7593;49.006;8.372;2022-08-01T01:05:22;3.50;;;3.20;;
14994;SDS011;7593;49.006;8.372;2022-08-01T01:07:50;5.70;;;2.95;;
14994;SDS011;7593;49.006;8.372;2022-08-01T01:10:25;3.85;;;2.90;;
14994;SDS011;7593;49.006;8.372;2022-08-01T01:12:59;3.17;;;2.83;;
14994;SDS011;7593;49.006;8.372;2022-08-01T01:15:31;4.50;;;2.80;;
14994;SDS011;7593;49.006;8.372;2022-08-01T01:18:02;2.72;;;2.28;;
14994;SDS011;7593;49.006;8.372;2022-08-01T01:20:30;4.55;;;2.75;;
14994;SDS011;7593;49.006;8.372;2022-08-01T01:23:09;2.83;;;2.58;;
14994;SDS011;7593;49.006;8.372;2022-08-01T01:25:51;3.05;;;2.50;;
14994;SDS011;7593;49.006;8.372;2022-08-01T01:28:35;5.25;;;2.63;;
14994;SDS011;7593;49.006;8.372;2022-08-01T01:31:10;3.85;;;2.80;;
14994;SDS011;7593;49.006;8.372;2022-08-01T01:33:39;3.28;;;2.83;;
14994;SDS011;7593;49.006;8.372;2022-08-01T01:36:08;3.40;;;2.45;;
14994;SDS011;7593;49.006;8.372;2022-08-01T01:38:39;2.95;;;2.50;;
14994;SDS011;7593;49.006;8.372;2022-08-01T01:41:08;3.38;;;2.40;;
14994;SDS011;7593;49.006;8.372;2022-08-01T01:43:37;3.00;;;2.70;;
14994;SDS011;7593;49.006;8.372;2022-08-01T01:46:05;3.28;;;2.90;;
14994;SDS011;7593;49.006;8.372;2022-08-01T01:48:34;3.50;;;2.78;;
14994;SDS011;7593;49.006;8.372;2022-08-01T01:51:02;3.10;;;2.80;;
14994;SDS011;7593;49.006;8.372;2022-08-01T01:53:31;3.38;;;2.78;;
14994;SDS011;7593;49.006;8.372;2022-08-01T01:56:00;3.00;;;2.70;;
14994;SDS011;7593;49.006;8.372;2022-08-01T01:58:28;3.17;;;2.85;;
14994;SDS011;7593;49.006;8.372;2022-08-01T02:00:57;3.03;;;2.70;;
14994;SDS011;7593;49.006;8.372;2022-08-01T02:03:26;3.65;;;3.03;;
14994;SDS011;7593;49.006;8.372;2022-08-01T02:05:57;4.10;;;2.85;;
14994;SDS011;7593;49.006;8.372;2022-08-01T02:08:25;3.55;;;2.67;;
14994;SDS011;7593;49.006;8.372;2022-08-01T02:10:55;3.78;;;2.65;;
14994;SDS011;7593;49.006;8.372;2022-08-01T02:13:40;3.65;;;2.65;;
14994;SDS011;7593;49.006;8.372;2022-08-01T02:16:08;4.22;;;2.75;;
14994;SDS011;7593;49.006;8.372;2022-08-01T02:18:37;3.25;;;2.83;;
14994;SDS011;7593;49.006;8.372;2022-08-01T02:21:05;3.55;;;2.97;;
14994;SDS011;7593;49.006;8.372;2022-08-01T02:23:37;2.97;;;2.70;;
14994;SDS011;7593;49.006;8.372;2022-08-01T02:26:07;3.47;;;2.83;;
14994;SDS011;7593;49.006;8.372;2022-08-01T02:28:38;3.13;;;2.63;;
14994;SDS011;7593;49.006;8.372;2022-08-01T02:31:12;3.10;;;2.80;;
14994;SDS011;7593;49.006;8.372;2022-08-01T02:33:44;2.95;;;2.67;;
14994;SDS011;7593;49.006;8.372;2022-08-01T02:36:15;3.13;;;2.42;;
14994;SDS011;7593;49.006;8.372;2022-08-01T02:38:44;3.05;;;2.75;;
14994;SDS011;7593;49.006;8.372;2022-08-01T02:41:12;4.22;;;3.00;;
14994;SDS011;7593;49.006;8.372;2022-08-01T02:43:43;3.35;;;2.75;;
14994;SDS011;7593;49.006;8.372;2022-08-01T02:46:16;3.40;;;3.10;;
14994;SDS011;7593;49.006;8.372;2022-08-01T02:48:47;3.88;;;2.83;;
14994;SDS011;7593;49.006;8.372;2022-08-01T02:51:17;3.35;;;3.00;;
14994;SDS011;7593;49.006;8.372;2022-08-01T02:53:47;3.30;;;2.67;;
14994;SDS011;7593;49.006;8.372;2022-08-01T02:56:15;5.55;;;3.10;;
14994;SDS011;7593;49.006;8.372;2022-08-01T02:58:45;2.97;;;2.72;;
14994;SDS011;7593;49.006;8.372;2022-08-01T03:01:13;5.28;;;2.80;;
14994;SDS011;7593;49.006;8.372;2022-08-01T03:03:41;3.45;;;3.15;;
14994;SDS011;7593;49.006;8.372;2022-08-01T03:06:08;5.28;;;2.92;;
14994;SDS011;7593;49.006;8.372;2022-08-01T03:08:37;3.53;;;2.80;;
14994;SDS011;7593;49.006;8.372;2022-08-01T03:11:05;3.75;;;2.78;;
14994;SDS011;7593;49.006;8.372;2022-08-01T03:13:33;3.95;;;2.80;;
14994;SDS011;7593;49.006;8.372;2022-08-01T03:16:00;4.88;;;3.13;;
14994;SDS011;7593;49.006;8.372;2022-08-01T03:18:29;4.05;;;2.67;;
14994;SDS011;7593;49.006;8.372;2022-08-01T03:20:57;4.18;;;2.80;;
14994;SDS011;7593;49.006;8.372;2022-08-01T03:23:25;3.25;;;2.75;;
14994;SDS011;7593;49.006;8.372;2022-08-01T03:25:57;3.55;;;2.88;;
14994;SDS011;7593;49.006;8.372;2022-08-01T03:28:25;2.80;;;2.58;;
14994;SDS011;7593;49.006;8.372;2022-08-01T03:30:52;2.90;;;2.63;;
14994;SDS011;7593;49.006;8.372;2022-08-01T03:33:20;3.15;;;2.95;;
14994;SDS011;7593;49.006;8.372;2022-08-01T03:35:48;3.22;;;2.92;;
14994;SDS011;7593;49.006;8.372;2022-08-01T03:38:19;3.55;;;3.22;;
14994;SDS011;7593;49.006;8.372;2022-08-01T03:40:51;4.22;;;3.05;;
14994;SDS011;7593;49.006;8.372;2022-08-01T03:43:22;3.97;;;3.50;;
14994;SDS011;7593;49.006;8.372;2022-08-01T03:45:56;4.60;;;3.30;;
14994;SDS011;7593;49.006;8.372;2022-08-01T03:48:28;5.38;;;3.50;;
14994;SDS011;7593;49.006;8.372;2022-08-01T03:50:59;3.83;;;3.20;;
14994;SDS011;7593;49.006;8.372;2022-08-01T03:53:27;4.07;;;3.45;;
14994;SDS011;7593;49.006;8.372;2022-08-01T03:55:56;3.40;;;3.10;;
14994;SDS011;7593;49.006;8.372;2022-08-01T03:58:27;3.88;;;3.20;;
14994;SDS011;7593;49.006;8.372;2022-08-01T04:00:55;4.25;;;3.20;;
14994;SDS011;7593;49.006;8.372;2022-08-01T04:03:22;4.57;;;3.42;;
14994;SDS011;7593;49.006;8.372;2022-08-01T04:05:51;4.95;;;3.03;;
14994;SDS011;7593;49.006;8.372;2022-08-01T04:08:18;3.40;;;3.10;;
14994;SDS011;7593;49.006;8.372;2022-08-01T04:10:45;3.97;;;3.08;;
14994;SDS011;7593;49.006;8.372;2022-08-01T04:13:12;3.10;;;2.80;;
14994;SDS011;7593;49.006;8.372;2022-08-01T04:15:40;5.60;;;2.88;;
14994;SDS011;7593;49.006;8.372;2022-08-01T04:18:07;4.28;;;3.15;;
14994;SDS011;7593;49.006;8.372;2022-08-01T04:20:33;3.47;;;3.17;;
14994;SDS011;7593;49.006;8.372;2022-08-01T04:23:00;6.57;;;2.80;;
14994;SDS011;7593;49.006;8.372;2022-08-01T04:25:29;5.35;;;2.72;;
14994;SDS011;7593;49.006;8.372;2022-08-01T04:27:59;3.53;;;3.13;;
14994;SDS011;7593;49.006;8.372;2022-08-01T04:30:29;3.63;;;3.20;;
14994;SDS011;7593;49.006;8.372;2022-08-01T04:33:02;3.95;;;3.13;;
14994;SDS011;7593;49.006;8.372;2022-08-01T04:35:32;4.95;;;3.15;;
14994;SDS011;7593;49.006;8.372;2022-08-01T04:38:01;7.95;;;3.38;;
14994;SDS011;7593;49.006;8.372;2022-08-01T04:40:28;3.78;;;3.13;;
14994;SDS011;7593;49.006;8.372;2022-08-01T04:42:56;4.68;;;3.50;;
14994;SDS011;7593;49.006;8.372;2022-08-01T04:45:23;4.28;;;3.85;;
14994;SDS011;7593;49.006;8.372;2022-08-01T04:47:51;6.75;;;3.38;;
14994;SDS011;7593;49.006;8.372;2022-08-01T04:50:20;5.05;;;3.05;;
14994;SDS011;7593;49.006;8.372;2022-08-01T04:52:48;5.05;;;3.20;;
14994;SDS011;7593;49.006;8.372;2022-08-01T04:55:16;9.18;;;3.70;;
14994;SDS011;7593;49.006;8.372;2022-08-01T04:57:43;3.42;;;3.13;;
14994;SDS011;7593;49.006;8.372;2022-08-01T05:00:13;3.75;;;3.40;;
14994;SDS011;7593;49.006;8.372;2022-08-01T05:02:41;4.95;;;3.20;;
14994;SDS011;7593;49.006;8.372;2022-08-01T05:05:08;3.95;;;3.38;;
14994;SDS011;7593;49.006;8.372;2022-08-01T05:07:37;4.25;;;3.20;;
14994;SDS011;7593;49.006;8.372;2022-08-01T05:10:04;4.78;;;3.22;;
14994;SDS011;7593;49.006;8.372;2022-08-01T05:12:31;3.97;;;3.30;;
14994;SDS011;7593;49.006;8.372;2022-08-01T05:14:58;3.30;;;3.00;;
14994;SDS011;7593;49.006;8.372;2022-08-01T05:17:25;5.20;;;3.33;;
14994;SDS011;7593;49.006;8.372;2022-08-01T05:19:52;4.47;;;3.35;;
14994;SDS011;7593;49.006;8.372;2022-08-01T05:22:18;7.35;;;3.25;;
14994;SDS011;7593;49.006;8.372;2022-08-01T05:24:46;6.60;;;2.92;;
14994;SDS011;7593;49.006;8.372;2022-08-01T05:27:13;4.50;;;3.60;;
14994;SDS011;7593;49.006;8.372;2022-08-01T05:29:40;5.00;;;2.97;;
14994;SDS011;7593;49.006;8.372;2022-08-01T05:32:07;3.22;;;2.92;;
14994;SDS011;7593;49.006;8.372;2022-08-01T05:34:34;6.00;;;3.30;;
14994;SDS011;7593;49.006;8.372;2022-08-01T05:37:01;5.40;;;3.50;;
14994;SDS011;7593;49.006;8.372;2022-08-01T05:39:28;4.18;;;3.00;;
14994;SDS011;7593;49.006;8.372;2022-08-01T05:41:56;4.95;;;3.10;;
14994;SDS011;7593;49.006;8.372;2022-08-01T05:44:23;5.68;;;2.65;;
14994;SDS011;7593;49.006;8.372;2022-08-01T05:46:50;7.97;;;3.60;;
14994;SDS011;7593;49.006;8.372;2022-08-01T05:49:16;4.22;;;3.13;;
14994;SDS011;7593;49.006;8.372;2022-08-01T05:51:43;4.30;;;3.00;;
14994;SDS011;7593;49.006;8.372;2022-08-01T05:54:10;4.97;;;3.33;;
14994;SDS011;7593;49.006;8.372;2022-08-01T05:56:37;4.45;;;3.20;;
14994;SDS011;7593;49.006;8.372;2022-08-01T05:59:05;5.65;;;3.00;;
14994;SDS011;7593;49.006;8.372;2022-08-01T06:01:32;3.22;;;2.80;;
14994;SDS011;7593;49.006;8.372;2022-08-01T06:03:59;3.35;;;2.65;;
14994;SDS011;7593;49.006;8.372;2022-08-01T06:06:26;8.07;;;2.95;;
14994;SDS011;7593;49.006;8.372;2022-08-01T06:08:52;3.67;;;3.00;;
14994;SDS011;7593;49.006;8.372;2022-08-01T06:11:19;3.03;;;2.72;;
14994;SDS011;7593;49.006;8.372;2022-08-01T06:13:46;3.05;;;2.72;;
14994;SDS011;7593;49.006;8.372;2022-08-01T06:16:14;6.78;;;2.97;;
14994;SDS011;7593;49.006;8.372;2022-08-01T06:18:41;3.40;;;2.80;;
14994;SDS011;7593;49.006;8.372;2022-08-01T06:21:08;4.85;;;2.78;;
14994;SDS011;7593;49.006;8.372;2022-08-01T06:23:35;2.95;;;2.67;;
14994;SDS011;7593;49.006;8.372;2022-08-01T06:26:02;7.47;;;2.53;;
14994;SDS011;7593;49.006;8.372;2022-08-01T06:28:29;2.97;;;2.58;;
14994;SDS011;7593;49.006;8.372;2022-08-01T06:30:56;6.00;;;2.40;;
14994;SDS011;7593;49.006;8.372;2022-08-01T06:33:25;4.80;;;2.50;;
14994;SDS011;7593;49.006;8.372;2022-08-01T06:35:52;3.05;;;2.22;;
14994;SDS011;7593;49.006;8.372;2022-08-01T06:38:19;3.22;;;2.33;;
14994;SDS011;7593;49.006;8.372;2022-08-01T06:40:46;5.22;;;2.40;;
14994;SDS011;7593;49.006;8.372;2022-08-01T06:43:13;3.67;;;2.10;;
14994;SDS011;7593;49.006;8.372;2022-08-01T06:45:40;3.60;;;2.63;;
14994;SDS011;7593;49.006;8.372;2022-08-01T06:48:07;5.40;;;2.45;;
14994;SDS011;7593;49.006;8.372;2022-08-01T06:50:35;6.43;;;2.40;;
14994;SDS011;7593;49.006;8.372;2022-08-01T06:53:02;3.95;;;2.50;;
14994;SDS011;7593;49.006;8.372;2022-08-01T06:55:30;4.15;;;2.33;;
14994;SDS011;7593;49.006;8.372;2022-08-01T06:57:57;4.53;;;2.40;;
14994;SDS011;7593;49.006;8.372;2022-08-01T07:00:24;3.65;;;2.45;;
14994;SDS011;7593;49.006;8.372;2022-08-01T07:02:53;4.80;;;2.42;;
14994;SDS011;7593;49.006;8.372;2022-08-01T07:05:21;3.38;;;2.40;;
14994;SDS011;7593;49.006;8.372;2022-08-01T07:07:50;2.85;;;2.15;;
14994;SDS011;7593;49.006;8.372;2022-08-01T07:10:17;2.45;;;2.00;;
14994;SDS011;7593;49.006;8.372;2022-08-01T07:12:44;2.60;;;2.40;;
14994;SDS011;7593;49.006;8.372;2022-08-01T07:15:10;6.22;;;2.13;;
14994;SDS011;7593;49.006;8.372;2022-08-01T07:17:38;4.85;;;2.92;;
14994;SDS011;7593;49.006;8.372;2022-08-01T07:20:06;8.63;;;2.33;;
14994;SDS011;7593;49.006;8.372;2022-08-01T07:22:33;2.80;;;2.08;;
14994;SDS011;7593;49.006;8.372;2022-08-01T07:25:02;2.92;;;1.90;;
14994;SDS011;7593;49.006;8.372;2022-08-01T07:27:30;2.85;;;2.08;;
14994;SDS011;7593;49.006;8.372;2022-08-01T07:29:56;4.20;;;2.30;;
14994;SDS011;7593;49.006;8.372;2022-08-01T07:32:23;3.40;;;2.40;;
14994;SDS011;7593;49.006;8.372;2022-08-01T07:34:51;5.35;;;2.10;;
14994;SDS011;7593;49.006;8.372;2022-08-01T07:37:18;2.80;;;1.95;;
14994;SDS011;7593;49.006;8.372;2022-08-01T07:39:44;3.85;;;3.20;;
14994;SDS011;7593;49.006;8.372;2022-08-01T07:42:12;4.88;;;3.63;;
14994;SDS011;7593;49.006;8.372;2022-08-01T07:44:39;5.07;;;2.60;;
14994;SDS011;7593;49.006;8.372;2022-08-01T07:47:06;4.07;;;2.85;;
14994;SDS011;7593;49.006;8.372;2022-08-01T07:49:33;3.97;;;2.88;;
14994;SDS011;7593;49.006;8.372;2022-08-01T07:52:00;3.33;;;2.20;;
14994;SDS011;7593;49.006;8.372;2022-08-01T07:54:27;4.88;;;2.30;;
14994;SDS011;7593;49.006;8.372;2022-08-01T07:56:54;3.50;;;2.20;;
14994;SDS011;7593;49.006;8.372;2022-08-01T07:59:23;6.95;;;2.17;;
14994;SDS011;7593;49.006;8.372;2022-08-01T08:01:50;4.00;;;1.67;;
14994;SDS011;7593;49.006;8.372;2022-08-01T08:04:17;9.07;;;2.30;;
14994;SDS011;7593;49.006;8.372;2022-08-01T08:06:43;6.13;;;1.48;;
14994;SDS011;7593;49.006;8.372;2022-08-01T08:09:12;5.38;;;1.50;;
14994;SDS011;7593;49.006;8.372;2022-08-01T08:11:39;3.95;;;1.30;;
14994;SDS011;7593;49.006;8.372;2022-08-01T08:14:08;1.60;;;1.10;;
14994;SDS011;7593;49.006;8.372;2022-08-01T08:16:36;2.08;;;1.13;;
14994;SDS011;7593;49.006;8.372;2022-08-01T08:19:03;5.35;;;1.83;;
14994;SDS011;7593;49.006;8.372;2022-08-01T08:21:30;3.90;;;1.50;;
14994;SDS011;7593;49.006;8.372;2022-08-01T08:23:57;7.38;;;1.70;;
14994;SDS011;7593;49.006;8.372;2022-08-01T08:26:41;7.57;;;1.77;;
14994;SDS011;7593;49.006;8.372;2022-08-01T08:29:07;3.30;;;1.60;;
14994;SDS011;7593;49.006;8.372;2022-08-01T08:31:35;1.98;;;1.23;;
14994;SDS011;7593;49.006;8.372;2022-08-01T08:34:02;3.25;;;1.70;;
14994;SDS011;7593;49.006;8.372;2022-08-01T08:36:29;1.48;;;1.10;;
14994;SDS011;7593;49.006;8.372;2022-08-01T08:38:56;1.98;;;1.10;;
14994;SDS011;7593;49.006;8.372;2022-08-01T08:41:25;7.43;;;1.98;;
14994;SDS011;7593;49.006;8.372;2022-08-01T08:43:52;1.77;;;1.30;;
14994;SDS011;7593;49.006;8.372;2022-08-01T08:46:21;2.80;;;1.45;;
14994;SDS011;7593;49.006;8.372;2022-08-01T08:48:50;6.53;;;1.30;;
14994;SDS011;7593;49.006;8.372;2022-08-01T08:51:18;4.88;;;1.27;;
14994;SDS011;7593;49.006;8.372;2022-08-01T08:53:46;19.38;;;2.80;;
14994;SDS011;7593;49.006;8.372;2022-08-01T08:56:13;4.22;;;1.55;;
14994;SDS011;7593;49.006;8.372;2022-08-01T08:58:41;3.40;;;1.13;;
14994;SDS011;7593;49.006;8.372;2022-08-01T09:01:10;1.70;;;0.90;;
14994;SDS011;7593;49.006;8.372;2022-08-01T09:03:37;1.10;;;1.00;;
14994;SDS011;7593;49.006;8.372;2022-08-01T09:06:06;3.60;;;1.10;;
14994;SDS011;7593;49.006;8.372;2022-08-01T09:08:33;2.40;;;1.17;;
14994;SDS011;7593;49.006;8.372;2022-08-01T09:10:59;1.45;;;1.02;;
14994;SDS011;7593;49.006;8.372;2022-08-01T09:13:26;2.88;;;1.35;;
14994;SDS011;7593;49.006;8.372;2022-08-01T09:15:54;1.52;;;1.20;;
14994;SDS011;7593;49.006;8.372;2022-08-01T09:18:28;2.60;;;1.25;;
14994;SDS011;7593;49.006;8.372;2022-08-01T09:23:44;8.18;;;1.65;;
14994;SDS011;7593;49.006;8.372;2022-08-01T09:26:12;1.48;;;1.23;;
14994;SDS011;7593;49.006;8.372;2022-08-01T09:28:40;1.77;;;1.05;;
14994;SDS011;7593;49.006;8.372;2022-08-01T09:31:08;4.88;;;1.17;;
14994;SDS011;7593;49.006;8.372;2022-08-01T09:33:47;1.67;;;1.20;;
14994;SDS011;7593;49.006;8.372;2022-08-01T09:36:19;1.88;;;1.27;;
14994;SDS011;7593;49.006;8.372;2022-08-01T09:38:47;2.10;;;1.15;;
14994;SDS011;7593;49.006;8.372;2022-08-01T09:41:14;11.50;;;2.17;;
14994;SDS011;7593;49.006;8.372;2022-08-01T09:43:47;3.83;;;1.25;;
14994;SDS011;7593;49.006;8.372;2022-08-01T09:46:14;1.90;;;1.30;;
14994;SDS011;7593;49.006;8.372;2022-08-01T09:48:54;3.42;;;1.60;;
14994;SDS011;7593;49.006;8.372;2022-08-01T09:51:30;2.13;;;1.30;;
14994;SDS011;7593;49.006;8.372;2022-08-01T09:53:58;2.22;;;1.40;;
14994;SDS011;7593;49.006;8.372;2022-08-01T09:56:25;2.28;;;1.50;;
14994;SDS011;7593;49.006;8.372;2022-08-01T09:58:53;3.50;;;1.50;;
14994;SDS011;7593;49.006;8.372;2022-08-01T10:01:21;2.45;;;1.30;;
14994;SDS011;7593;49.006;8.372;2022-08-01T10:04:03;4.85;;;1.35;;
14994;SDS011;7593;49.006;8.372;2022-08-01T10:06:32;1.88;;;1.60;;
14994;SDS011;7593;49.006;8.372;2022-08-01T10:09:00;1.88;;;1.52;;
14994;SDS011;7593;49.006;8.372;2022-08-01T10:11:27;3.60;;;1.25;;
14994;SDS011;7593;49.006;8.372;2022-08-01T10:13:56;1.80;;;1.30;;
14994;SDS011;7593;49.006;8.372;2022-08-01T10:16:25;2.90;;;1.40;;
14994;SDS011;7593;49.006;8.372;2022-08-01T10:18:53;2.85;;;1.50;;
14994;SDS011;7593;49.006;8.372;2022-08-01T10:21:20;3.03;;;1.75;;
14994;SDS011;7593;49.006;8.372;2022-08-01T10:23:54;2.08;;;1.45;;
14994;SDS011;7593;49.006;8.372;2022-08-01T10:26:21;5.22;;;1.60;;
14994;SDS011;7593;49.006;8.372;2022-08-01T10:28:51;3.63;;;1.30;;
14994;SDS011;7593;49.006;8.372;2022-08-01T10:31:20;3.60;;;1.70;;
14994;SDS011;7593;49.006;8.372;2022-08-01T10:33:47;1.93;;;1.50;;
14994;SDS011;7593;49.006;8.372;2022-08-01T10:36:17;3.13;;;1.50;;
14994;SDS011;7593;49.006;8.372;2022-08-01T10:38:46;3.42;;;1.40;;
14994;SDS011;7593;49.006;8.372;2022-08-01T10:41:14;3.17;;;1.50;;
14994;SDS011;7593;49.006;8.372;2022-08-01T10:43:44;5.20;;;1.70;;
14994;SDS011;7593;49.006;8.372;2022-08-01T10:46:12;3.05;;;1.60;;
14994;SDS011;7593;49.006;8.372;2022-08-01T10:48:41;1.45;;;1.33;;
14994;SDS011;7593;49.006;8.372;2022-08-01T10:51:13;1.77;;;1.35;;
14994;SDS011;7593;49.006;8.372;2022-08-01T10:53:45;3.63;;;1.52;;
14994;SDS011;7593;49.006;8.372;2022-08-01T10:56:12;2.85;;;1.40;;
14994;SDS011;7593;49.006;8.372;2022-08-01T10:58:42;6.30;;;1.38;;
14994;SDS011;7593;49.006;8.372;2022-08-01T11:01:20;10.60;;;2.10;;
14994;SDS011;7593;49.006;8.372;2022-08-01T11:04:05;2.45;;;1.40;;
14994;SDS011;7593;49.006;8.372;2022-08-01T11:06:41;4.47;;;2.10;;
14994;SDS011;7593;49.006;8.372;2022-08-01T11:12:06;4.80;;;1.70;;
14994;SDS011;7593;49.006;8.372;2022-08-01T11:17:35;5.32;;;1.80;;
14994;SDS011;7593;49.006;8.372;2022-08-01T11:20:03;2.08;;;1.50;;
14994;SDS011;7593;49.006;8.372;2022-08-01T11:22:31;4.32;;;1.77;;
14994;SDS011;7593;49.006;8.372;2022-08-01T11:25:18;5.43;;;1.83;;
14994;SDS011;7593;49.006;8.372;2022-08-01T11:27:47;3.53;;;1.70;;
14994;SDS011;7593;49.006;8.372;2022-08-01T11:30:23;1.85;;;1.60;;
14994;SDS011;7593;49.006;8.372;2022-08-01T11:32:55;2.50;;;1.83;;
14994;SDS011;7593;49.006;8.372;2022-08-01T11:35:23;9.57;;;2.72;;
14994;SDS011;7593;49.006;8.372;2022-08-01T11:37:52;3.95;;;2.50;;
14994;SDS011;7593;49.006;8.372;2022-08-01T11:40:28;3.97;;;1.90;;
14994;SDS011;7593;49.006;8.372;2022-08-01T11:45:46;5.13;;;2.00;;
14994;SDS011;7593;49.006;8.372;2022-08-01T11:48:17;4.00;;;1.58;;
14994;SDS011;7593;49.006;8.372;2022-08-01T11:50:45;2.95;;;1.77;;
14994;SDS011;7593;49.006;8.372;2022-08-01T11:53:12;3.58;;;1.60;;
14994;SDS011;7593;49.006;8.372;2022-08-01T11:55:44;2.03;;;1.60;;
14994;SDS011;7593;49.006;8.372;2022-08-01T11:58:13;2.60;;;1.40;;
14994;SDS011;7593;49.006;8.372;2022-08-01T12:00:40;1.52;;;1.42;;
14994;SDS011;7593;49.006;8.372;2022-08-01T12:03:07;1.90;;;1.70;;
14994;SDS011;7593;49.006;8.372;2022-08-01T12:05:35;4.32;;;1.88;;
14994;SDS011;7593;49.006;8.372;2022-08-01T12:08:03;1.90;;;1.33;;
14994;SDS011;7593;49.006;8.372;2022-08-01T12:10:32;1.98;;;1.60;;
14994;SDS011;7593;49.006;8.372;2022-08-01T12:13:04;2.42;;;1.40;;
14994;SDS011;7593;49.006;8.372;2022-08-01T12:15:33;3.47;;;1.70;;
14994;SDS011;7593;49.006;8.372;2022-08-01T12:18:02;1.52;;;1.40;;
14994;SDS011;7593;49.006;8.372;2022-08-01T12:20:31;1.65;;;1.23;;
14994;SDS011;7593;49.006;8.372;2022-08-01T12:22:59;1.55;;;1.38;;
14994;SDS011;7593;49.006;8.372;2022-08-01T12:25:28;2.60;;;1.20;;
14994;SDS011;7593;49.006;8.372;2022-08-01T12:27:55;2.25;;;1.33;;
14994;SDS011;7593;49.006;8.372;2022-08-01T12:30:27;3.53;;;1.40;;
14994;SDS011;7593;49.006;8.372;2022-08-01T12:32:55;4.53;;;1.20;;
14994;SDS011;7593;49.006;8.372;2022-08-01T12:35:23;4.72;;;1.45;;
14994;SDS011;7593;49.006;8.372;2022-08-01T12:37:52;3.40;;;1.40;;
14994;SDS011;7593;49.006;8.372;2022-08-01T12:40:20;1.98;;;1.15;;
14994;SDS011;7593;49.006;8.372;2022-08-01T12:42:49;3.30;;;1.10;;
14994;SDS011;7593;49.006;8.372;2022-08-01T12:45:17;2.17;;;1.23;;
14994;SDS011;7593;49.006;8.372;2022-08-01T12:47:47;3.90;;;1.10;;
14994;SDS011;7593;49.006;8.372;2022-08-01T12:50:15;1.55;;;1.30;;
14994;SDS011;7593;49.006;8.372;2022-08-01T12:52:45;1.20;;;1.05;;
14994;SDS011;7593;49.006;8.372;2022-08-01T12:55:13;5.40;;;1.40;;
14994;SDS011;7593;49.006;8.372;2022-08-01T12:57:43;1.45;;;1.10;;
14994;SDS011;7593;49.006;8.372;2022-08-01T13:00:18;1.23;;;0.98;;
14994;SDS011;7593;49.006;8.372;2022-08-01T13:02:48;3.00;;;1.25;;
14994;SDS011;7593;49.006;8.372;2022-08-01T13:05:16;3.53;;;1.67;;
14994;SDS011;7593;49.006;8.372;2022-08-01T13:07:45;1.30;;;1.20;;
14994;SDS011;7593;49.006;8.372;2022-08-01T13:10:14;1.30;;;1.10;;
14994;SDS011;7593;49.006;8.372;2022-08-01T13:12:50;2.15;;;1.30;;
14994;SDS011;7593;49.006;8.372;2022-08-01T13:15:19;2.97;;;1.20;;
14994;SDS011;7593;49.006;8.372;2022-08-01T13:17:52;1.20;;;1.10;;
14994;SDS011;7593;49.006;8.372;2022-08-01T13:20:24;1.42;;;1.10;;
14994;SDS011;7593;49.006;8.372;2022-08-01T13:23:09;1.48;;;1.10;;
14994;SDS011;7593;49.006;8.372;2022-08-01T13:25:46;1.30;;;1.10;;
14994;SDS011;7593;49.006;8.372;2022-08-01T13:28:14;1.48;;;1.08;;
14994;SDS011;7593;49.006;8.372;2022-08-01T13:30:50;1.05;;;0.80;;
14994;SDS011;7593;49.006;8.372;2022-08-01T13:33:22;4.22;;;1.20;;
14994;SDS011;7593;49.006;8.372;2022-08-01T13:35:50;2.17;;;1.05;;
14994;SDS011;7593;49.006;8.372;2022-08-01T13:38:17;1.98;;;1.13;;
14994;SDS011;7593;49.006;8.372;2022-08-01T13:40:45;1.35;;;1.00;;
14994;SDS011;7593;49.006;8.372;2022-08-01T13:43:12;1.67;;;0.90;;
14994;SDS011;7593;49.006;8.372;2022-08-01T13:45:39;1.48;;;0.95;;
14994;SDS011;7593;49.006;8.372;2022-08-01T13:48:07;3.28;;;1.10;;
14994;SDS011;7593;49.006;8.372;2022-08-01T13:50:35;2.28;;;1.00;;
14994;SDS011;7593;49.006;8.372;2022-08-01T13:53:02;4.55;;;1.13;;
14994;SDS011;7593;49.006;8.372;2022-08-01T13:55:29;2.45;;;0.93;;
14994;SDS011;7593;49.006;8.372;2022-08-01T13:57:56;2.00;;;1.20;;
14994;SDS011;7593;49.006;8.372;2022-08-01T14:00:22;1.98;;;0.90;;
14994;SDS011;7593;49.006;8.372;2022-08-01T14:02:49;1.55;;;1.05;;
14994;SDS011;7593;49.006;8.372;2022-08-01T14:05:16;1.23;;;0.98;;
14994;SDS011;7593;49.006;8.372;2022-08-01T14:07:44;1.85;;;1.10;;
14994;SDS011;7593;49.006;8.372;2022-08-01T14:10:11;1.60;;;0.95;;
14994;SDS011;7593;49.006;8.372;2022-08-01T14:12:38;1.10;;;1.00;;
14994;SDS011;7593;49.006;8.372;2022-08-01T14:15:06;1.20;;;1.10;;
14994;SDS011;7593;49.006;8.372;2022-08-01T14:17:33;2.00;;;1.10;;
14994;SDS011;7593;49.006;8.372;2022-08-01T14:20:00;2.30;;;1.10;;
14994;SDS011;7593;49.006;8.372;2022-08-01T14:22:29;1.10;;;0.90;;
14994;SDS011;7593;49.006;8.372;2022-08-01T14:24:57;1.63;;;0.98;;
14994;SDS011;7593;49.006;8.372;2022-08-01T14:27:25;2.28;;;1.00;;
14994;SDS011;7593;49.006;8.372;2022-08-01T14:29:53;2.10;;;0.80;;
14994;SDS011;7593;49.006;8.372;2022-08-01T14:32:20;3.22;;;1.10;;
14994;SDS011;7593;49.006;8.372;2022-08-01T14:34:47;1.67;;;1.10;;
14994;SDS011;7593;49.006;8.372;2022-08-01T14:37:14;0.88;;;0.80;;
14994;SDS011;7593;49.006;8.372;2022-08-01T14:39:41;1.15;;;0.90;;
14994;SDS011;7593;49.006;8.372;2022-08-01T14:42:09;1.02;;;0.95;;
14994;SDS011;7593;49.006;8.372;2022-08-01T14:44:36;1.92;;;0.90;;
14994;SDS011;7593;49.006;8.372;2022-08-01T14:47:02;1.00;;;0.90;;
14994;SDS011;7593;49.006;8.372;2022-08-01T14:49:30;2.35;;;0.93;;
14994;SDS011;7593;49.006;8.372;2022-08-01T14:51:56;1.48;;;1.10;;
14994;SDS011;7593;49.006;8.372;2022-08-01T14:54:23;1.25;;;0.90;;
14994;SDS011;7593;49.006;8.372;2022-08-01T14:56:50;2.40;;;1.05;;
14994;SDS011;7593;49.006;8.372;2022-08-01T14:59:19;4.43;;;1.55;;
14994;SDS011;7593;49.006;8.372;2022-08-01T15:01:46;1.13;;;0.98;;
14994;SDS011;7593;49.006;8.372;2022-08-01T15:04:12;1.92;;;1.20;;
14994;SDS011;7593;49.006;8.372;2022-08-01T15:06:39;2.22;;;1.27;;
14994;SDS011;7593;49.006;8.372;2022-08-01T15:09:06;2.20;;;0.95;;
14994;SDS011;7593;49.006;8.372;2022-08-01T15:11:33;1.90;;;1.30;;
14994;SDS011;7593;49.006;8.372;2022-08-01T15:14:00;1.33;;;1.10;;
14994;SDS011;7593;49.006;8.372;2022-08-01T15:16:45;2.35;;;1.20;;
14994;SDS011;7593;49.006;8.372;2022-08-01T15:19:12;3.78;;;1.10;;
14994;SDS011;7593;49.006;8.372;2022-08-01T15:21:39;1.90;;;1.20;;